createdAt,value
2022-11-20T00:02:07.588Z,10.57
2022-11-20T00:04:40.955Z,11.57
2022-11-20T00:07:13.076Z,10.67
2022-11-20T00:09:45.470Z,11.23
2022-11-20T00:12:16.211Z,11.13
2022-11-20T00:14:47.453Z,10.67
2022-11-20T00:17:21.239Z,11.70
2022-11-20T00:19:56.785Z,10.70
2022-11-20T00:22:29.052Z,10.43
2022-11-20T00:25:03.028Z,11.37
2022-11-20T00:27:33.907Z,10.17
2022-11-20T00:30:06.840Z,10.57
2022-11-20T00:32:40.396Z,10.00
2022-11-20T00:35:13.107Z,11.10
2022-11-20T00:37:46.059Z,10.30
2022-11-20T00:40:18.385Z,10.43
2022-11-20T00:42:50.820Z,10.87
2022-11-20T00:45:21.722Z,10.17
2022-11-20T00:47:53.100Z,9.70
2022-11-20T00:50:26.247Z,10.57
2022-11-20T00:52:58.413Z,10.33
2022-11-20T00:55:29.985Z,10.27
2022-11-20T00:58:04.744Z,10.07
2022-11-20T01:00:39.397Z,10.13
2022-11-20T01:03:09.970Z,9.80
2022-11-20T01:05:42.150Z,10.40
2022-11-20T01:08:13.078Z,10.60
2022-11-20T01:10:45.191Z,10.87
2022-11-20T01:13:35.248Z,11.17
2022-11-20T01:16:12.775Z,10.40
2022-11-20T01:18:46.822Z,10.97
2022-11-20T01:21:23.224Z,10.17
2022-11-20T01:23:54.844Z,10.47
2022-11-20T01:26:30.561Z,10.80
2022-11-20T01:29:03.183Z,10.70
2022-11-20T01:31:39.880Z,10.83
2022-11-20T01:34:13.274Z,10.77
2022-11-20T01:36:46.467Z,10.67
2022-11-20T01:39:21.415Z,10.90
2022-11-20T01:42:13.329Z,10.47
2022-11-20T01:45:01.650Z,10.43
2022-11-20T01:47:45.316Z,11.40
2022-11-20T01:50:28.748Z,10.60
2022-11-20T01:53:02.350Z,10.50
2022-11-20T01:55:38.860Z,10.20
2022-11-20T01:58:10.949Z,10.53
2022-11-20T02:00:42.399Z,11.20
2022-11-20T02:03:17.299Z,10.73
2022-11-20T02:06:01.246Z,10.50
2022-11-20T02:08:33.308Z,11.23
2022-11-20T02:11:03.803Z,11.80
2022-11-20T02:13:44.226Z,11.27
2022-11-20T02:16:23.919Z,11.10
2022-11-20T02:18:56.842Z,10.90
2022-11-20T02:21:48.965Z,10.93
2022-11-20T02:24:24.541Z,11.53
2022-11-20T02:27:04.160Z,11.53
2022-11-20T02:29:37.988Z,10.77
2022-11-20T02:32:11.056Z,11.23
2022-11-20T02:34:42.500Z,11.40
2022-11-20T02:37:15.843Z,11.50
2022-11-20T02:39:48.214Z,12.50
2022-11-20T02:42:19.602Z,11.93
2022-11-20T02:44:50.093Z,11.67
2022-11-20T02:47:20.661Z,11.80
2022-11-20T02:49:51.560Z,11.03
2022-11-20T02:52:23.240Z,12.73
2022-11-20T02:54:54.411Z,11.73
2022-11-20T02:57:25.709Z,11.73
2022-11-20T02:59:56.978Z,12.63
2022-11-20T03:02:33.525Z,11.83
2022-11-20T03:05:04.099Z,11.80
2022-11-20T03:07:35.362Z,12.13
2022-11-20T03:10:09.053Z,11.33
2022-11-20T03:12:42.526Z,12.57
2022-11-20T03:15:13.524Z,11.80
2022-11-20T03:17:45.696Z,12.57
2022-11-20T03:20:16.210Z,11.83
2022-11-20T03:22:46.869Z,12.33
2022-11-20T03:25:17.538Z,12.17
2022-11-20T03:27:50.077Z,12.83
2022-11-20T03:30:23.995Z,13.27
2022-11-20T03:32:55.608Z,12.37
2022-11-20T03:35:27.776Z,13.07
2022-11-20T03:37:59.772Z,12.80
2022-11-20T03:40:30.612Z,12.67
2022-11-20T03:43:01.188Z,12.50
2022-11-20T03:45:31.656Z,12.43
2022-11-20T03:48:02.304Z,12.07
2022-11-20T03:50:34.472Z,12.27
2022-11-20T03:53:04.894Z,12.13
2022-11-20T03:55:36.819Z,12.60
2022-11-20T03:58:09.407Z,13.00
2022-11-20T04:00:39.849Z,12.97
2022-11-20T04:03:10.907Z,12.47
2022-11-20T04:05:41.837Z,12.00
2022-11-20T04:08:12.402Z,12.33
2022-11-20T04:10:43.139Z,12.30
2022-11-20T04:13:13.818Z,12.37
2022-11-20T04:15:45.246Z,13.27
2022-11-20T04:18:16.058Z,12.70
2022-11-20T04:20:47.189Z,12.17
2022-11-20T04:23:17.739Z,12.53
2022-11-20T04:25:48.188Z,11.90
2022-11-20T04:28:18.699Z,11.80
2022-11-20T04:30:49.168Z,12.50
2022-11-20T04:33:20.510Z,12.40
2022-11-20T04:35:53.354Z,13.17
2022-11-20T04:38:24.244Z,12.47
2022-11-20T04:41:00.110Z,12.93
2022-11-20T04:43:33.201Z,12.77
2022-11-20T04:46:07.130Z,12.80
2022-11-20T04:48:40.029Z,12.43
2022-11-20T04:51:10.572Z,12.83
2022-11-20T04:53:42.999Z,13.27
2022-11-20T04:56:15.465Z,13.20
2022-11-20T04:58:48.004Z,12.43
2022-11-20T05:01:24.422Z,13.30
2022-11-20T05:03:54.964Z,12.80
2022-11-20T05:06:26.881Z,12.63
2022-11-20T05:08:59.509Z,12.90
2022-11-20T05:11:32.016Z,12.17
2022-11-20T05:14:10.357Z,12.00
2022-11-20T05:16:41.228Z,12.40
2022-11-20T05:19:13.193Z,12.43
2022-11-20T05:21:43.798Z,13.23
2022-11-20T05:24:14.800Z,12.73
2022-11-20T05:26:45.895Z,12.77
2022-11-20T05:29:17.364Z,12.97
2022-11-20T05:31:48.200Z,12.53
2022-11-20T05:34:19.640Z,12.77
2022-11-20T05:36:50.366Z,13.10
2022-11-20T05:39:22.624Z,13.00
2022-11-20T05:41:55.193Z,13.17
2022-11-20T05:44:26.201Z,11.80
2022-11-20T05:46:56.938Z,12.93
2022-11-20T05:49:29.712Z,13.43
2022-11-20T05:52:00.452Z,13.23
2022-11-20T05:54:30.974Z,12.63
2022-11-20T05:57:04.028Z,12.77
2022-11-20T05:59:35.998Z,11.70
2022-11-20T06:02:07.176Z,11.90
2022-11-20T06:04:40.307Z,12.30
2022-11-20T06:07:12.248Z,12.03
2022-11-20T06:09:47.106Z,12.17
2022-11-20T06:12:20.836Z,11.30
2022-11-20T06:14:51.644Z,11.13
2022-11-20T06:17:23.788Z,11.87
2022-11-20T06:19:57.018Z,11.50
2022-11-20T06:22:33.869Z,11.73
2022-11-20T06:25:06.747Z,11.93
2022-11-20T06:27:40.218Z,11.60
2022-11-20T06:30:17.506Z,11.63
2022-11-20T06:32:46.523Z,11.93
2022-11-20T06:35:17.194Z,12.47
2022-11-20T06:37:47.777Z,12.47
2022-11-20T06:40:18.324Z,12.63
2022-11-20T06:42:49.000Z,12.97
2022-11-20T06:45:19.385Z,11.70
2022-11-20T06:47:49.750Z,12.37
2022-11-20T06:50:21.750Z,12.70
2022-11-20T06:52:52.189Z,13.43
2022-11-20T06:55:23.019Z,11.97
2022-11-20T06:57:56.119Z,12.87
2022-11-20T07:00:26.772Z,12.93
2022-11-20T07:03:01.509Z,13.07
2022-11-20T07:05:33.468Z,13.10
2022-11-20T07:08:08.869Z,13.20
2022-11-20T07:10:43.457Z,11.90
2022-11-20T07:13:13.989Z,13.23
2022-11-20T07:15:44.400Z,12.70
2022-11-20T07:18:14.842Z,13.30
2022-11-20T07:20:48.310Z,12.77
2022-11-20T07:23:20.797Z,13.47
2022-11-20T07:25:52.942Z,13.13
2022-11-20T07:28:25.057Z,13.60
2022-11-20T07:30:57.143Z,13.60
2022-11-20T07:33:27.929Z,12.60
2022-11-20T07:36:00.994Z,12.87
2022-11-20T07:38:31.670Z,13.53
2022-11-20T07:41:02.760Z,13.03
2022-11-20T07:43:40.836Z,13.57
2022-11-20T07:46:08.544Z,13.20
2022-11-20T07:48:40.801Z,13.80
2022-11-20T07:51:12.011Z,13.30
2022-11-20T07:53:43.173Z,13.10
2022-11-20T07:56:14.951Z,12.97
2022-11-20T07:58:45.652Z,13.27
2022-11-20T08:01:19.658Z,13.43
2022-11-20T08:03:49.747Z,12.27
2022-11-20T08:06:21.803Z,12.60
2022-11-20T08:08:53.785Z,13.00
2022-11-20T08:11:42.592Z,12.63
2022-11-20T08:14:15.985Z,13.03
2022-11-20T08:16:49.253Z,13.27
2022-11-20T08:19:22.340Z,12.70
2022-11-20T08:22:01.269Z,14.10
2022-11-20T08:24:33.907Z,13.27
2022-11-20T08:27:05.875Z,12.47
2022-11-20T08:29:37.726Z,13.33
2022-11-20T08:32:08.633Z,13.17
2022-11-20T08:34:42.069Z,13.73
2022-11-20T08:37:17.444Z,13.60
2022-11-20T08:39:49.623Z,14.00
2022-11-20T08:42:20.635Z,13.33
2022-11-20T08:44:57.293Z,13.20
2022-11-20T08:47:28.033Z,13.73
2022-11-20T08:50:01.072Z,13.83
2022-11-20T08:52:34.501Z,13.20
2022-11-20T08:55:06.297Z,12.70
2022-11-20T08:57:40.029Z,13.67
2022-11-20T09:00:14.213Z,13.13
2022-11-20T09:02:44.990Z,14.17
2022-11-20T09:05:16.777Z,13.53
2022-11-20T09:07:49.097Z,13.73
2022-11-20T09:10:24.725Z,13.33
2022-11-20T09:12:57.154Z,13.13
2022-11-20T09:15:29.621Z,13.30
2022-11-20T09:18:03.496Z,12.50
2022-11-20T09:20:34.721Z,13.63
2022-11-20T09:23:07.491Z,13.17
2022-11-20T09:25:38.119Z,13.40
2022-11-20T09:28:11.008Z,14.00
2022-11-20T09:30:44.531Z,14.03
2022-11-20T09:33:16.842Z,14.53
2022-11-20T09:35:50.720Z,13.60
2022-11-20T09:38:22.876Z,14.20
2022-11-20T09:41:09.637Z,13.93
2022-11-20T09:43:59.806Z,12.93
2022-11-20T09:46:44.789Z,12.30
2022-11-20T09:49:36.282Z,13.73
2022-11-20T09:52:26.209Z,13.07
2022-11-20T09:55:04.676Z,12.87
2022-11-20T09:57:38.711Z,13.33
2022-11-20T10:00:14.663Z,12.83
2022-11-20T10:03:06.398Z,13.50
2022-11-20T10:05:47.261Z,13.60
2022-11-20T10:08:24.584Z,13.17
2022-11-20T10:11:02.132Z,12.97
2022-11-20T10:13:39.023Z,12.27
2022-11-20T10:16:40.922Z,13.20
2022-11-20T10:19:36.736Z,12.80
2022-11-20T10:22:24.642Z,12.33
2022-11-20T10:25:16.173Z,12.40
2022-11-20T10:27:58.816Z,12.83
2022-11-20T10:30:31.491Z,11.93
2022-11-20T10:33:06.675Z,12.13
2022-11-20T10:35:49.276Z,12.17
2022-11-20T10:38:35.839Z,12.93
2022-11-20T10:41:27.383Z,12.53
2022-11-20T10:44:15.331Z,12.87
2022-11-20T10:46:50.017Z,12.47
2022-11-20T10:49:25.144Z,12.90
2022-11-20T10:52:06.438Z,12.10
2022-11-20T10:55:00.833Z,12.30
2022-11-20T10:57:40.780Z,13.07
2022-11-20T11:00:20.430Z,11.93
2022-11-20T11:02:54.063Z,12.10
2022-11-20T11:05:35.580Z,12.40
2022-11-20T11:08:09.020Z,11.40
2022-11-20T11:10:45.829Z,11.63
2022-11-20T11:13:25.242Z,12.13
2022-11-20T11:15:56.838Z,11.47
2022-11-20T11:18:33.966Z,11.37
2022-11-20T11:21:06.754Z,11.53
2022-11-20T11:23:45.144Z,11.17
2022-11-20T11:26:25.118Z,11.93
2022-11-20T11:29:05.068Z,12.37
2022-11-20T11:31:37.740Z,10.97
2022-11-20T11:34:19.090Z,10.37
2022-11-20T11:37:00.682Z,11.03
2022-11-20T11:39:35.015Z,10.30
2022-11-20T11:42:06.190Z,9.70
2022-11-20T11:44:55.106Z,10.00
2022-11-20T11:47:34.286Z,9.70
2022-11-20T11:50:13.683Z,9.90
2022-11-20T11:53:05.915Z,10.70
2022-11-20T11:55:46.341Z,9.80
2022-11-20T11:58:24.657Z,10.33
2022-11-20T12:00:59.839Z,10.13
2022-11-20T12:03:41.635Z,9.83
2022-11-20T12:06:19.401Z,11.40
2022-11-20T12:08:54.297Z,10.43
2022-11-20T12:11:47.417Z,11.33
2022-11-20T12:14:26.428Z,9.57
2022-11-20T12:17:00.428Z,9.90
2022-11-20T12:19:37.013Z,9.60
2022-11-20T12:22:34.989Z,9.33
2022-11-20T12:25:14.623Z,9.67
2022-11-20T12:28:12.813Z,9.70
2022-11-20T12:30:55.178Z,9.20
2022-11-20T12:33:54.384Z,9.60
2022-11-20T12:36:33.466Z,8.90
2022-11-20T12:39:20.823Z,8.90
2022-11-20T12:42:32.794Z,9.63
2022-11-20T12:45:20.329Z,9.83
2022-11-20T12:48:11.734Z,8.87
2022-11-20T12:51:15.443Z,8.57
2022-11-20T12:53:56.955Z,8.03
2022-11-20T12:56:40.376Z,7.80
2022-11-20T12:59:46.585Z,7.50
2022-11-20T13:02:45.870Z,8.10
2022-11-20T13:05:54.821Z,8.43
2022-11-20T13:08:40.905Z,8.67
2022-11-20T13:11:32.651Z,7.73
2022-11-20T13:14:11.852Z,8.40
2022-11-20T13:17:06.240Z,8.90
2022-11-20T13:19:36.740Z,8.13
2022-11-20T13:22:08.281Z,9.87
2022-11-20T13:24:38.656Z,9.17
2022-11-20T13:27:21.199Z,8.70
2022-11-20T13:30:09.925Z,8.30
2022-11-20T13:32:44.485Z,8.83
2022-11-20T13:35:18.108Z,8.77
2022-11-20T13:37:49.804Z,9.57
2022-11-20T13:40:23.339Z,8.73
2022-11-20T13:43:01.236Z,8.67
2022-11-20T13:45:36.108Z,8.53
2022-11-20T13:48:10.484Z,9.23
2022-11-20T13:50:53.894Z,8.93
2022-11-20T13:53:46.807Z,9.20
2022-11-20T13:56:29.227Z,8.27
2022-11-20T13:59:18.873Z,8.10
2022-11-20T14:01:51.344Z,8.10
2022-11-20T14:04:25.673Z,7.83
2022-11-20T14:06:56.826Z,8.70
2022-11-20T14:09:34.948Z,8.03
2022-11-20T14:12:09.974Z,8.60
2022-11-20T14:14:43.480Z,8.90
2022-11-20T14:17:29.265Z,9.00
2022-11-20T14:20:03.914Z,8.40
2022-11-20T14:22:34.949Z,8.37
2022-11-20T14:25:24.639Z,9.37
2022-11-20T14:28:03.155Z,8.87
2022-11-20T14:30:39.498Z,9.10
2022-11-20T14:33:12.959Z,8.57
2022-11-20T14:35:46.522Z,8.47
2022-11-20T14:38:21.070Z,8.87
2022-11-20T14:40:54.989Z,9.03
2022-11-20T14:43:30.993Z,8.10
2022-11-20T14:46:04.918Z,9.07
2022-11-20T14:48:47.485Z,9.53
2022-11-20T14:51:41.482Z,9.53
2022-11-20T14:54:16.990Z,9.17
2022-11-20T14:57:00.540Z,10.07
2022-11-20T14:59:33.826Z,9.37
2022-11-20T15:02:07.532Z,8.53
2022-11-20T15:05:03.386Z,9.90
2022-11-20T15:07:37.223Z,9.23
2022-11-20T15:10:31.347Z,9.60
2022-11-20T15:13:19.018Z,9.57
2022-11-20T15:16:00.307Z,9.97
2022-11-20T15:18:38.979Z,9.20
2022-11-20T15:21:20.123Z,9.70
2022-11-20T15:23:53.203Z,9.03
2022-11-20T15:26:31.273Z,9.50
2022-11-20T15:29:04.118Z,8.47
2022-11-20T15:31:36.205Z,9.63
2022-11-20T15:34:11.249Z,8.60
2022-11-20T15:36:42.594Z,9.53
2022-11-20T15:39:15.619Z,9.47
2022-11-20T15:41:46.032Z,10.47
2022-11-20T15:44:17.665Z,10.27
2022-11-20T15:46:48.993Z,9.50
2022-11-20T15:49:24.365Z,10.53
2022-11-20T15:51:54.967Z,9.40
2022-11-20T15:54:26.644Z,10.40
2022-11-20T15:56:57.449Z,9.87
2022-11-20T15:59:28.924Z,9.33
2022-11-20T16:02:00.823Z,11.03
2022-11-20T16:04:31.903Z,10.37
2022-11-20T16:07:02.713Z,10.60
2022-11-20T16:09:35.318Z,9.87
2022-11-20T16:12:12.260Z,9.97
2022-11-20T16:14:59.521Z,9.83
2022-11-20T16:17:35.062Z,10.10
2022-11-20T16:20:07.788Z,9.73
2022-11-20T16:22:38.269Z,9.57
2022-11-20T16:25:10.889Z,10.40
2022-11-20T16:27:41.392Z,10.20
2022-11-20T16:30:12.577Z,9.40
2022-11-20T16:32:43.401Z,9.87
2022-11-20T16:35:14.240Z,8.97
2022-11-20T16:37:47.060Z,10.53
2022-11-20T16:40:19.634Z,9.93
2022-11-20T16:42:54.661Z,9.33
2022-11-20T16:45:31.290Z,10.10
2022-11-20T16:47:58.901Z,9.63
2022-11-20T16:50:31.616Z,9.43
2022-11-20T16:53:03.436Z,10.23
2022-11-20T16:55:35.538Z,10.43
2022-11-20T16:58:08.491Z,10.83
2022-11-20T17:00:43.623Z,10.40
2022-11-20T17:03:14.636Z,10.87
2022-11-20T17:05:45.216Z,9.53
2022-11-20T17:08:15.792Z,9.53
2022-11-20T17:10:47.215Z,10.17
2022-11-20T17:13:19.208Z,9.80
2022-11-20T17:15:50.895Z,9.90
2022-11-20T17:18:23.083Z,9.07
2022-11-20T17:20:56.552Z,9.77
2022-11-20T17:23:33.909Z,9.27
2022-11-20T17:26:18.762Z,9.03
2022-11-20T17:29:02.877Z,9.37
2022-11-20T17:31:37.138Z,8.70
2022-11-20T17:34:11.162Z,9.70
2022-11-20T17:36:47.309Z,9.80
2022-11-20T17:39:21.186Z,10.87
2022-11-20T17:41:54.279Z,9.77
2022-11-20T17:44:25.168Z,9.73
2022-11-20T17:46:57.374Z,10.03
2022-11-20T17:49:29.598Z,10.50
2022-11-20T17:52:02.054Z,9.90
2022-11-20T17:54:33.032Z,9.60
2022-11-20T17:57:29.731Z,9.83
2022-11-20T18:00:01.602Z,9.43
2022-11-20T18:02:33.879Z,9.70
2022-11-20T18:05:04.795Z,8.77
2022-11-20T18:07:42.352Z,9.00
2022-11-20T18:10:14.298Z,9.83
2022-11-20T18:12:46.036Z,9.40
2022-11-20T18:15:19.567Z,9.83
2022-11-20T18:17:50.271Z,11.10
2022-11-20T18:20:33.121Z,10.67
2022-11-20T18:22:57.011Z,10.10
2022-11-20T18:25:28.173Z,10.50
2022-11-20T18:28:00.121Z,9.57
2022-11-20T18:30:35.063Z,10.17
2022-11-20T18:33:08.011Z,10.33
2022-11-20T18:35:40.894Z,9.87
2022-11-20T18:38:15.315Z,10.53
2022-11-20T18:40:47.647Z,11.30
2022-11-20T18:43:38.329Z,11.47
2022-11-20T18:46:08.871Z,10.43
2022-11-20T18:48:39.406Z,11.17
2022-11-20T18:51:14.479Z,11.87
2022-11-20T18:53:47.686Z,10.73
2022-11-20T18:56:19.755Z,11.93
2022-11-20T18:58:50.316Z,12.23
2022-11-20T19:01:20.904Z,11.87
2022-11-20T19:03:55.786Z,11.00
2022-11-20T19:06:29.722Z,11.40
2022-11-20T19:09:04.435Z,11.90
2022-11-20T19:11:38.942Z,11.27
2022-11-20T19:14:09.964Z,11.57
2022-11-20T19:16:45.277Z,11.93
2022-11-20T19:19:19.396Z,11.50
2022-11-20T19:21:51.567Z,10.90
2022-11-20T19:24:24.012Z,11.10
2022-11-20T19:26:57.984Z,11.03
2022-11-20T19:29:31.421Z,11.63
2022-11-20T19:32:03.912Z,11.03
2022-11-20T19:34:35.317Z,11.40
2022-11-20T19:37:09.538Z,11.00
2022-11-20T19:39:41.660Z,11.13
2022-11-20T19:42:13.133Z,10.70
2022-11-20T19:44:44.495Z,10.67
2022-11-20T19:47:15.178Z,10.07
2022-11-20T19:49:45.552Z,10.67
2022-11-20T19:52:17.536Z,10.37
2022-11-20T19:54:48.035Z,10.77
2022-11-20T19:57:19.999Z,10.93
2022-11-20T19:59:52.515Z,10.50
2022-11-20T20:02:24.981Z,11.00
2022-11-20T20:04:55.573Z,10.77
2022-11-20T20:07:26.660Z,10.77
2022-11-20T20:09:57.011Z,11.03
2022-11-20T20:12:28.932Z,15.70
2022-11-20T20:15:00.927Z,10.97
2022-11-20T20:17:32.705Z,11.37
2022-11-20T20:20:03.258Z,10.10
2022-11-20T20:22:35.772Z,10.60
2022-11-20T20:25:10.837Z,10.37
2022-11-20T20:27:43.420Z,11.37
2022-11-20T20:30:14.418Z,10.00
2022-11-20T20:32:45.098Z,10.70
2022-11-20T20:35:16.992Z,10.07
2022-11-20T20:37:47.509Z,10.80
2022-11-20T20:40:19.292Z,10.10
2022-11-20T20:42:50.245Z,10.77
2022-11-20T20:45:20.716Z,10.57
2022-11-20T20:47:51.165Z,10.53
2022-11-20T20:50:22.141Z,11.17
2022-11-20T20:52:55.136Z,11.10
2022-11-20T20:55:28.571Z,10.30
2022-11-20T20:58:02.232Z,11.67
2022-11-20T21:00:32.803Z,11.67
2022-11-20T21:03:05.130Z,10.87
2022-11-20T21:05:35.568Z,11.07
2022-11-20T21:08:24.870Z,11.87
2022-11-20T21:11:00.061Z,11.10
2022-11-20T21:13:33.101Z,11.57
2022-11-20T21:16:07.396Z,11.07
2022-11-20T21:18:38.350Z,12.27
2022-11-20T21:21:29.319Z,11.70
2022-11-20T21:24:03.794Z,13.07
2022-11-20T21:26:35.916Z,12.67
2022-11-20T21:29:07.915Z,12.00
2022-11-20T21:31:38.416Z,12.33
2022-11-20T21:34:11.983Z,13.50
2022-11-20T21:36:43.315Z,13.10
2022-11-20T21:39:16.394Z,12.63
2022-11-20T21:41:46.910Z,13.20
2022-11-20T21:44:33.804Z,13.10
2022-11-20T21:46:52.089Z,13.07
2022-11-20T21:49:23.836Z,12.17
2022-11-20T21:51:59.200Z,13.93
2022-11-20T21:54:31.560Z,12.50
2022-11-20T21:57:05.099Z,11.87
2022-11-20T21:59:37.621Z,12.57
2022-11-20T22:02:12.582Z,12.47
2022-11-20T22:04:46.423Z,13.43
2022-11-20T22:07:18.733Z,11.67
2022-11-20T22:09:50.994Z,13.07
2022-11-20T22:12:27.364Z,12.57
2022-11-20T22:15:04.841Z,12.00
2022-11-20T22:17:54.686Z,12.23
2022-11-20T22:20:26.663Z,11.53
2022-11-20T22:22:58.252Z,11.97
2022-11-20T22:25:32.338Z,12.53
2022-11-20T22:28:05.437Z,12.13
2022-11-20T22:30:37.940Z,12.17
2022-11-20T22:33:13.530Z,14.50
2022-11-20T22:35:45.668Z,13.70
2022-11-20T22:38:16.491Z,14.50
2022-11-20T22:40:48.573Z,13.60
2022-11-20T22:43:21.919Z,13.80
2022-11-20T22:45:57.715Z,15.17
2022-11-20T22:48:28.171Z,15.90
2022-11-20T22:51:14.503Z,15.03
2022-11-20T22:53:50.835Z,13.30
2022-11-20T22:56:24.543Z,14.23
2022-11-20T22:59:01.761Z,13.30
2022-11-20T23:01:39.607Z,14.37
2022-11-20T23:04:09.472Z,14.97
2022-11-20T23:06:41.916Z,13.70
2022-11-20T23:09:12.971Z,14.77
2022-11-20T23:11:46.995Z,12.53
2022-11-20T23:14:17.760Z,14.20
2022-11-20T23:16:51.938Z,13.50
2022-11-20T23:19:24.062Z,12.97
2022-11-20T23:21:55.030Z,14.17
2022-11-20T23:24:30.931Z,13.60
2022-11-20T23:27:02.565Z,13.40
2022-11-20T23:29:35.400Z,14.17
2022-11-20T23:32:07.176Z,14.13
2022-11-20T23:34:37.733Z,14.47
2022-11-20T23:37:08.170Z,14.77
2022-11-20T23:39:40.917Z,15.70
2022-11-20T23:42:13.674Z,14.83
2022-11-20T23:44:44.548Z,14.40
2022-11-20T23:47:17.718Z,14.90
2022-11-20T23:49:50.718Z,14.60
2022-11-20T23:52:23.605Z,15.20
2022-11-20T23:54:54.635Z,14.90
2022-11-20T23:57:27.895Z,15.07
2022-11-20T23:59:59.514Z,14.77
